sensor_id;sensor_type;location;lat;lon;timestamp;P1;durP1;ratioP1;P2;durP2;ratioP2
15952;SDS011;8075;47.766;8.846;2023-05-10T00:00:35;0.40;;;0.38;;
15952;SDS011;8075;47.766;8.846;2023-05-10T00:03:01;1.13;;;0.50;;
15952;SDS011;8075;47.766;8.846;2023-05-10T00:05:29;0.30;;;0.30;;
15952;SDS011;8075;47.766;8.846;2023-05-10T00:07:55;0.32;;;0.32;;
15952;SDS011;8075;47.766;8.846;2023-05-10T00:10:21;1.30;;;0.50;;
15952;SDS011;8075;47.766;8.846;2023-05-10T00:12:47;0.57;;;0.47;;
15952;SDS011;8075;47.766;8.846;2023-05-10T00:15:13;0.38;;;0.38;;
15952;SDS011;8075;47.766;8.846;2023-05-10T00:17:39;1.13;;;0.43;;
15952;SDS011;8075;47.766;8.846;2023-05-10T00:20:05;0.80;;;0.50;;
15952;SDS011;8075;47.766;8.846;2023-05-10T00:22:32;2.55;;;0.60;;
15952;SDS011;8075;47.766;8.846;2023-05-10T00:24:58;1.70;;;0.40;;
15952;SDS011;8075;47.766;8.846;2023-05-10T00:27:24;0.83;;;0.40;;
15952;SDS011;8075;47.766;8.846;2023-05-10T00:29:50;0.47;;;0.47;;
15952;SDS011;8075;47.766;8.846;2023-05-10T00:32:16;0.50;;;0.50;;
15952;SDS011;8075;47.766;8.846;2023-05-10T00:34:42;2.10;;;0.60;;
15952;SDS011;8075;47.766;8.846;2023-05-10T00:37:08;0.60;;;0.50;;
15952;SDS011;8075;47.766;8.846;2023-05-10T00:39:34;0.95;;;0.50;;
15952;SDS011;8075;47.766;8.846;2023-05-10T00:42:00;1.13;;;0.60;;
15952;SDS011;8075;47.766;8.846;2023-05-10T00:44:26;1.65;;;0.57;;
15952;SDS011;8075;47.766;8.846;2023-05-10T00:46:52;0.82;;;0.70;;
15952;SDS011;8075;47.766;8.846;2023-05-10T00:49:18;1.42;;;0.70;;
15952;SDS011;8075;47.766;8.846;2023-05-10T00:51:45;1.15;;;0.77;;
15952;SDS011;8075;47.766;8.846;2023-05-10T00:54:11;1.60;;;0.80;;
15952;SDS011;8075;47.766;8.846;2023-05-10T00:56:37;1.20;;;0.70;;
15952;SDS011;8075;47.766;8.846;2023-05-10T00:59:03;1.95;;;0.90;;
15952;SDS011;8075;47.766;8.846;2023-05-10T01:01:29;0.70;;;0.68;;
15952;SDS011;8075;47.766;8.846;2023-05-10T01:03:59;1.48;;;0.80;;
15952;SDS011;8075;47.766;8.846;2023-05-10T01:06:25;2.03;;;0.80;;
15952;SDS011;8075;47.766;8.846;2023-05-10T01:08:52;1.00;;;0.75;;
15952;SDS011;8075;47.766;8.846;2023-05-10T01:11:18;0.63;;;0.63;;
15952;SDS011;8075;47.766;8.846;2023-05-10T01:13:45;1.70;;;0.90;;
15952;SDS011;8075;47.766;8.846;2023-05-10T01:16:13;1.60;;;0.80;;
15952;SDS011;8075;47.766;8.846;2023-05-10T01:18:40;0.75;;;0.70;;
15952;SDS011;8075;47.766;8.846;2023-05-10T01:24:09;1.70;;;0.80;;
15952;SDS011;8075;47.766;8.846;2023-05-10T01:32:03;1.27;;;0.70;;
15952;SDS011;8075;47.766;8.846;2023-05-10T01:34:34;1.77;;;0.80;;
15952;SDS011;8075;47.766;8.846;2023-05-10T01:39:36;1.35;;;0.70;;
15952;SDS011;8075;47.766;8.846;2023-05-10T01:42:09;2.30;;;0.70;;
15952;SDS011;8075;47.766;8.846;2023-05-10T01:47:38;0.75;;;0.60;;
15952;SDS011;8075;47.766;8.846;2023-05-10T01:50:06;1.05;;;0.68;;
15952;SDS011;8075;47.766;8.846;2023-05-10T01:52:40;0.88;;;0.68;;
15952;SDS011;8075;47.766;8.846;2023-05-10T01:55:09;1.02;;;0.60;;
15952;SDS011;8075;47.766;8.846;2023-05-10T01:57:37;0.60;;;0.60;;
15952;SDS011;8075;47.766;8.846;2023-05-10T02:00:04;0.85;;;0.60;;
15952;SDS011;8075;47.766;8.846;2023-05-10T02:02:33;2.63;;;0.70;;
15952;SDS011;8075;47.766;8.846;2023-05-10T02:05:00;2.83;;;0.70;;
15952;SDS011;8075;47.766;8.846;2023-05-10T02:07:28;1.20;;;0.80;;
15952;SDS011;8075;47.766;8.846;2023-05-10T02:09:54;0.80;;;0.60;;
15952;SDS011;8075;47.766;8.846;2023-05-10T02:12:21;1.13;;;0.60;;
15952;SDS011;8075;47.766;8.846;2023-05-10T02:14:48;1.85;;;0.70;;
15952;SDS011;8075;47.766;8.846;2023-05-10T02:17:16;0.80;;;0.75;;
15952;SDS011;8075;47.766;8.846;2023-05-10T02:19:43;0.70;;;0.70;;
15952;SDS011;8075;47.766;8.846;2023-05-10T02:22:09;2.63;;;0.77;;
15952;SDS011;8075;47.766;8.846;2023-05-10T02:24:35;0.70;;;0.70;;
15952;SDS011;8075;47.766;8.846;2023-05-10T02:27:02;1.70;;;0.70;;
15952;SDS011;8075;47.766;8.846;2023-05-10T02:29:29;1.85;;;0.70;;
15952;SDS011;8075;47.766;8.846;2023-05-10T02:31:56;1.00;;;0.70;;
15952;SDS011;8075;47.766;8.846;2023-05-10T02:34:23;0.88;;;0.80;;
15952;SDS011;8075;47.766;8.846;2023-05-10T02:36:49;1.33;;;0.90;;
15952;SDS011;8075;47.766;8.846;2023-05-10T02:39:16;1.13;;;0.80;;
15952;SDS011;8075;47.766;8.846;2023-05-10T02:41:43;0.70;;;0.70;;
15952;SDS011;8075;47.766;8.846;2023-05-10T02:44:10;1.40;;;1.00;;
15952;SDS011;8075;47.766;8.846;2023-05-10T02:46:37;1.65;;;0.80;;
15952;SDS011;8075;47.766;8.846;2023-05-10T02:49:03;0.88;;;0.73;;
15952;SDS011;8075;47.766;8.846;2023-05-10T02:51:31;2.13;;;0.90;;
15952;SDS011;8075;47.766;8.846;2023-05-10T02:54:00;1.45;;;0.93;;
15952;SDS011;8075;47.766;8.846;2023-05-10T02:56:28;2.33;;;0.98;;
15952;SDS011;8075;47.766;8.846;2023-05-10T02:58:57;1.63;;;1.00;;
15952;SDS011;8075;47.766;8.846;2023-05-10T03:01:23;1.15;;;1.08;;
15952;SDS011;8075;47.766;8.846;2023-05-10T03:03:49;2.10;;;1.20;;
15952;SDS011;8075;47.766;8.846;2023-05-10T03:06:15;1.60;;;1.40;;
15952;SDS011;8075;47.766;8.846;2023-05-10T03:08:41;1.40;;;1.30;;
15952;SDS011;8075;47.766;8.846;2023-05-10T03:13:44;1.58;;;1.48;;
15952;SDS011;8075;47.766;8.846;2023-05-10T03:16:15;1.98;;;1.77;;
15952;SDS011;8075;47.766;8.846;2023-05-10T03:18:56;1.90;;;1.73;;
15952;SDS011;8075;47.766;8.846;2023-05-10T03:21:28;2.20;;;1.48;;
15952;SDS011;8075;47.766;8.846;2023-05-10T03:24:07;1.90;;;1.70;;
15952;SDS011;8075;47.766;8.846;2023-05-10T03:26:36;1.70;;;1.60;;
15952;SDS011;8075;47.766;8.846;2023-05-10T03:29:03;3.20;;;1.60;;
15952;SDS011;8075;47.766;8.846;2023-05-10T03:31:30;1.63;;;1.52;;
15952;SDS011;8075;47.766;8.846;2023-05-10T03:33:56;2.30;;;1.65;;
15952;SDS011;8075;47.766;8.846;2023-05-10T03:36:22;1.73;;;1.63;;
15952;SDS011;8075;47.766;8.846;2023-05-10T03:38:48;3.33;;;1.60;;
15952;SDS011;8075;47.766;8.846;2023-05-10T03:41:14;1.75;;;1.60;;
15952;SDS011;8075;47.766;8.846;2023-05-10T03:43:40;2.10;;;1.60;;
15952;SDS011;8075;47.766;8.846;2023-05-10T03:46:06;2.10;;;1.40;;
15952;SDS011;8075;47.766;8.846;2023-05-10T03:48:32;1.95;;;1.70;;
15952;SDS011;8075;47.766;8.846;2023-05-10T03:50:58;1.73;;;1.48;;
15952;SDS011;8075;47.766;8.846;2023-05-10T03:53:24;1.67;;;1.58;;
15952;SDS011;8075;47.766;8.846;2023-05-10T03:55:51;2.88;;;1.45;;
15952;SDS011;8075;47.766;8.846;2023-05-10T03:58:17;1.50;;;1.40;;
15952;SDS011;8075;47.766;8.846;2023-05-10T04:00:43;1.85;;;1.75;;
15952;SDS011;8075;47.766;8.846;2023-05-10T04:03:10;1.67;;;1.50;;
15952;SDS011;8075;47.766;8.846;2023-05-10T04:05:37;2.95;;;1.67;;
15952;SDS011;8075;47.766;8.846;2023-05-10T04:08:03;1.67;;;1.58;;
15952;SDS011;8075;47.766;8.846;2023-05-10T04:10:29;3.22;;;1.60;;
15952;SDS011;8075;47.766;8.846;2023-05-10T04:12:55;2.10;;;1.70;;
15952;SDS011;8075;47.766;8.846;2023-05-10T04:15:21;3.13;;;1.50;;
15952;SDS011;8075;47.766;8.846;2023-05-10T04:17:47;1.83;;;1.70;;
15952;SDS011;8075;47.766;8.846;2023-05-10T04:20:13;1.88;;;1.70;;
15952;SDS011;8075;47.766;8.846;2023-05-10T04:22:39;1.88;;;1.77;;
15952;SDS011;8075;47.766;8.846;2023-05-10T04:25:06;1.90;;;1.73;;
15952;SDS011;8075;47.766;8.846;2023-05-10T04:27:32;2.42;;;1.70;;
15952;SDS011;8075;47.766;8.846;2023-05-10T04:29:58;4.05;;;1.83;;
15952;SDS011;8075;47.766;8.846;2023-05-10T04:32:24;2.40;;;1.88;;
15952;SDS011;8075;47.766;8.846;2023-05-10T04:34:50;2.40;;;2.20;;
15952;SDS011;8075;47.766;8.846;2023-05-10T04:37:16;2.93;;;1.90;;
15952;SDS011;8075;47.766;8.846;2023-05-10T04:39:42;2.15;;;2.00;;
15952;SDS011;8075;47.766;8.846;2023-05-10T04:42:08;2.60;;;1.92;;
15952;SDS011;8075;47.766;8.846;2023-05-10T04:44:35;2.13;;;1.85;;
15952;SDS011;8075;47.766;8.846;2023-05-10T04:47:01;2.27;;;1.83;;
15952;SDS011;8075;47.766;8.846;2023-05-10T04:49:28;1.80;;;1.70;;
15952;SDS011;8075;47.766;8.846;2023-05-10T04:51:54;1.97;;;1.70;;
15952;SDS011;8075;47.766;8.846;2023-05-10T04:54:20;3.25;;;1.92;;
15952;SDS011;8075;47.766;8.846;2023-05-10T04:56:46;1.77;;;1.67;;
15952;SDS011;8075;47.766;8.846;2023-05-10T04:59:12;1.60;;;1.50;;
15952;SDS011;8075;47.766;8.846;2023-05-10T05:01:39;2.40;;;1.63;;
15952;SDS011;8075;47.766;8.846;2023-05-10T05:04:05;1.70;;;1.60;;
15952;SDS011;8075;47.766;8.846;2023-05-10T05:06:31;2.25;;;1.80;;
15952;SDS011;8075;47.766;8.846;2023-05-10T05:08:57;3.22;;;1.63;;
15952;SDS011;8075;47.766;8.846;2023-05-10T05:11:23;1.95;;;1.80;;
15952;SDS011;8075;47.766;8.846;2023-05-10T05:13:50;1.70;;;1.60;;
15952;SDS011;8075;47.766;8.846;2023-05-10T05:16:16;1.70;;;1.40;;
15952;SDS011;8075;47.766;8.846;2023-05-10T05:18:42;3.42;;;1.70;;
15952;SDS011;8075;47.766;8.846;2023-05-10T05:21:18;1.60;;;1.50;;
15952;SDS011;8075;47.766;8.846;2023-05-10T05:23:45;1.90;;;1.70;;
15952;SDS011;8075;47.766;8.846;2023-05-10T05:26:11;1.80;;;1.70;;
15952;SDS011;8075;47.766;8.846;2023-05-10T05:28:37;1.90;;;1.60;;
15952;SDS011;8075;47.766;8.846;2023-05-10T05:31:04;2.67;;;1.75;;
15952;SDS011;8075;47.766;8.846;2023-05-10T05:33:30;4.70;;;1.80;;
15952;SDS011;8075;47.766;8.846;2023-05-10T05:35:56;2.10;;;1.60;;
15952;SDS011;8075;47.766;8.846;2023-05-10T05:38:22;2.53;;;1.65;;
15952;SDS011;8075;47.766;8.846;2023-05-10T05:40:48;1.50;;;1.40;;
15952;SDS011;8075;47.766;8.846;2023-05-10T05:43:14;1.90;;;1.60;;
15952;SDS011;8075;47.766;8.846;2023-05-10T05:45:40;2.47;;;1.70;;
15952;SDS011;8075;47.766;8.846;2023-05-10T05:48:06;1.88;;;1.70;;
15952;SDS011;8075;47.766;8.846;2023-05-10T05:50:32;2.10;;;1.45;;
15952;SDS011;8075;47.766;8.846;2023-05-10T05:52:58;2.05;;;1.63;;
15952;SDS011;8075;47.766;8.846;2023-05-10T05:55:24;1.65;;;1.55;;
15952;SDS011;8075;47.766;8.846;2023-05-10T05:57:51;2.50;;;1.30;;
15952;SDS011;8075;47.766;8.846;2023-05-10T06:00:17;2.17;;;1.30;;
15952;SDS011;8075;47.766;8.846;2023-05-10T06:02:43;1.60;;;1.30;;
15952;SDS011;8075;47.766;8.846;2023-05-10T06:05:09;2.40;;;1.35;;
15952;SDS011;8075;47.766;8.846;2023-05-10T06:07:35;2.53;;;1.25;;
15952;SDS011;8075;47.766;8.846;2023-05-10T06:10:01;1.58;;;1.10;;
15952;SDS011;8075;47.766;8.846;2023-05-10T06:12:27;1.20;;;1.10;;
15952;SDS011;8075;47.766;8.846;2023-05-10T06:14:53;1.63;;;1.30;;
15952;SDS011;8075;47.766;8.846;2023-05-10T06:17:19;1.40;;;1.30;;
15952;SDS011;8075;47.766;8.846;2023-05-10T06:19:46;1.60;;;1.30;;
15952;SDS011;8075;47.766;8.846;2023-05-10T06:22:12;1.42;;;1.33;;
15952;SDS011;8075;47.766;8.846;2023-05-10T06:24:38;1.25;;;1.15;;
15952;SDS011;8075;47.766;8.846;2023-05-10T06:27:04;1.20;;;1.10;;
15952;SDS011;8075;47.766;8.846;2023-05-10T06:29:31;1.17;;;1.08;;
15952;SDS011;8075;47.766;8.846;2023-05-10T06:31:57;2.63;;;1.40;;
15952;SDS011;8075;47.766;8.846;2023-05-10T06:34:23;1.20;;;1.10;;
15952;SDS011;8075;47.766;8.846;2023-05-10T06:36:49;1.40;;;1.10;;
15952;SDS011;8075;47.766;8.846;2023-05-10T06:39:15;2.65;;;1.15;;
15952;SDS011;8075;47.766;8.846;2023-05-10T06:41:41;2.33;;;1.20;;
15952;SDS011;8075;47.766;8.846;2023-05-10T06:44:07;2.80;;;1.33;;
15952;SDS011;8075;47.766;8.846;2023-05-10T06:46:33;1.70;;;1.20;;
15952;SDS011;8075;47.766;8.846;2023-05-10T06:49:00;1.30;;;1.10;;
15952;SDS011;8075;47.766;8.846;2023-05-10T06:51:26;1.60;;;1.13;;
15952;SDS011;8075;47.766;8.846;2023-05-10T06:53:52;2.28;;;1.10;;
15952;SDS011;8075;47.766;8.846;2023-05-10T06:56:18;1.80;;;1.00;;
15952;SDS011;8075;47.766;8.846;2023-05-10T06:58:46;3.22;;;1.20;;
15952;SDS011;8075;47.766;8.846;2023-05-10T07:01:12;1.95;;;1.25;;
15952;SDS011;8075;47.766;8.846;2023-05-10T07:03:38;1.45;;;1.35;;
15952;SDS011;8075;47.766;8.846;2023-05-10T07:06:04;2.05;;;1.00;;
15952;SDS011;8075;47.766;8.846;2023-05-10T07:08:32;2.55;;;1.10;;
15952;SDS011;8075;47.766;8.846;2023-05-10T07:11:05;1.37;;;1.00;;
15952;SDS011;8075;47.766;8.846;2023-05-10T07:13:35;2.00;;;0.80;;
15952;SDS011;8075;47.766;8.846;2023-05-10T07:16:02;1.15;;;0.80;;
15952;SDS011;8075;47.766;8.846;2023-05-10T07:18:31;0.85;;;0.85;;
15952;SDS011;8075;47.766;8.846;2023-05-10T07:20:57;0.82;;;0.80;;
15952;SDS011;8075;47.766;8.846;2023-05-10T07:23:23;2.00;;;0.70;;
15952;SDS011;8075;47.766;8.846;2023-05-10T07:25:49;4.05;;;0.90;;
15952;SDS011;8075;47.766;8.846;2023-05-10T07:28:18;1.23;;;1.00;;
15952;SDS011;8075;47.766;8.846;2023-05-10T07:30:45;2.33;;;0.90;;
15952;SDS011;8075;47.766;8.846;2023-05-10T07:33:12;2.40;;;1.00;;
15952;SDS011;8075;47.766;8.846;2023-05-10T07:35:38;1.60;;;0.80;;
15952;SDS011;8075;47.766;8.846;2023-05-10T07:38:04;1.13;;;0.90;;
15952;SDS011;8075;47.766;8.846;2023-05-10T07:40:30;1.33;;;0.80;;
15952;SDS011;8075;47.766;8.846;2023-05-10T07:42:56;2.20;;;1.05;;
15952;SDS011;8075;47.766;8.846;2023-05-10T07:45:22;1.00;;;0.73;;
15952;SDS011;8075;47.766;8.846;2023-05-10T07:47:48;1.80;;;0.80;;
15952;SDS011;8075;47.766;8.846;2023-05-10T07:50:14;1.42;;;0.82;;
15952;SDS011;8075;47.766;8.846;2023-05-10T07:52:40;1.27;;;0.63;;
15952;SDS011;8075;47.766;8.846;2023-05-10T07:55:07;1.00;;;0.70;;
15952;SDS011;8075;47.766;8.846;2023-05-10T07:57:33;1.45;;;0.65;;
15952;SDS011;8075;47.766;8.846;2023-05-10T07:59:59;0.95;;;0.60;;
15952;SDS011;8075;47.766;8.846;2023-05-10T08:02:25;1.08;;;0.50;;
15952;SDS011;8075;47.766;8.846;2023-05-10T08:04:51;0.88;;;0.52;;
15952;SDS011;8075;47.766;8.846;2023-05-10T08:07:17;0.68;;;0.68;;
15952;SDS011;8075;47.766;8.846;2023-05-10T08:09:43;1.80;;;0.70;;
15952;SDS011;8075;47.766;8.846;2023-05-10T08:12:09;0.55;;;0.40;;
15952;SDS011;8075;47.766;8.846;2023-05-10T08:14:35;0.80;;;0.50;;
15952;SDS011;8075;47.766;8.846;2023-05-10T08:17:02;0.50;;;0.50;;
15952;SDS011;8075;47.766;8.846;2023-05-10T08:19:28;0.50;;;0.50;;
15952;SDS011;8075;47.766;8.846;2023-05-10T08:21:54;0.75;;;0.50;;
15952;SDS011;8075;47.766;8.846;2023-05-10T08:24:20;0.98;;;0.40;;
15952;SDS011;8075;47.766;8.846;2023-05-10T08:26:47;0.55;;;0.45;;
15952;SDS011;8075;47.766;8.846;2023-05-10T08:29:13;1.67;;;0.50;;
15952;SDS011;8075;47.766;8.846;2023-05-10T08:31:39;1.88;;;0.60;;
15952;SDS011;8075;47.766;8.846;2023-05-10T08:34:05;1.30;;;0.60;;
15952;SDS011;8075;47.766;8.846;2023-05-10T08:36:31;0.95;;;0.80;;
15952;SDS011;8075;47.766;8.846;2023-05-10T08:38:57;1.08;;;0.50;;
15952;SDS011;8075;47.766;8.846;2023-05-10T08:41:23;1.55;;;0.63;;
15952;SDS011;8075;47.766;8.846;2023-05-10T08:43:50;1.65;;;0.68;;
15952;SDS011;8075;47.766;8.846;2023-05-10T08:46:18;1.95;;;0.70;;
15952;SDS011;8075;47.766;8.846;2023-05-10T08:48:44;1.35;;;0.80;;
15952;SDS011;8075;47.766;8.846;2023-05-10T08:51:14;1.75;;;1.08;;
15952;SDS011;8075;47.766;8.846;2023-05-10T08:53:41;1.08;;;0.90;;
15952;SDS011;8075;47.766;8.846;2023-05-10T08:56:07;1.08;;;0.80;;
15952;SDS011;8075;47.766;8.846;2023-05-10T08:58:33;1.52;;;0.82;;
15952;SDS011;8075;47.766;8.846;2023-05-10T09:01:00;2.55;;;1.08;;
15952;SDS011;8075;47.766;8.846;2023-05-10T09:03:26;2.20;;;0.80;;
15952;SDS011;8075;47.766;8.846;2023-05-10T09:05:52;3.40;;;1.00;;
15952;SDS011;8075;47.766;8.846;2023-05-10T09:08:22;1.92;;;0.95;;
15952;SDS011;8075;47.766;8.846;2023-05-10T09:10:50;1.50;;;0.90;;
15952;SDS011;8075;47.766;8.846;2023-05-10T09:13:17;1.10;;;0.70;;
15952;SDS011;8075;47.766;8.846;2023-05-10T09:15:43;1.83;;;1.00;;
15952;SDS011;8075;47.766;8.846;2023-05-10T09:18:09;2.53;;;0.90;;
15952;SDS011;8075;47.766;8.846;2023-05-10T09:20:35;2.80;;;1.02;;
15952;SDS011;8075;47.766;8.846;2023-05-10T09:23:01;2.20;;;1.13;;
15952;SDS011;8075;47.766;8.846;2023-05-10T09:25:27;2.50;;;0.90;;
15952;SDS011;8075;47.766;8.846;2023-05-10T09:27:53;3.25;;;0.82;;
15952;SDS011;8075;47.766;8.846;2023-05-10T09:30:27;2.05;;;1.08;;
15952;SDS011;8075;47.766;8.846;2023-05-10T09:32:53;2.20;;;0.98;;
15952;SDS011;8075;47.766;8.846;2023-05-10T09:35:21;3.30;;;0.80;;
15952;SDS011;8075;47.766;8.846;2023-05-10T09:37:49;2.17;;;1.00;;
15952;SDS011;8075;47.766;8.846;2023-05-10T09:40:19;1.92;;;0.93;;
15952;SDS011;8075;47.766;8.846;2023-05-10T09:42:58;3.83;;;0.90;;
15952;SDS011;8075;47.766;8.846;2023-05-10T09:45:26;1.50;;;0.77;;
15952;SDS011;8075;47.766;8.846;2023-05-10T09:47:52;2.85;;;0.88;;
15952;SDS011;8075;47.766;8.846;2023-05-10T09:50:19;3.20;;;0.90;;
15952;SDS011;8075;47.766;8.846;2023-05-10T09:52:49;1.55;;;0.77;;
15952;SDS011;8075;47.766;8.846;2023-05-10T09:55:16;2.22;;;0.70;;
15952;SDS011;8075;47.766;8.846;2023-05-10T09:57:42;3.28;;;0.98;;
15952;SDS011;8075;47.766;8.846;2023-05-10T10:00:08;1.97;;;0.70;;
15952;SDS011;8075;47.766;8.846;2023-05-10T10:02:35;1.85;;;0.80;;
15952;SDS011;8075;47.766;8.846;2023-05-10T10:05:01;2.20;;;0.90;;
15952;SDS011;8075;47.766;8.846;2023-05-10T10:07:28;2.10;;;0.88;;
15952;SDS011;8075;47.766;8.846;2023-05-10T10:09:54;1.65;;;0.80;;
15952;SDS011;8075;47.766;8.846;2023-05-10T10:12:20;1.60;;;0.80;;
15952;SDS011;8075;47.766;8.846;2023-05-10T10:14:47;4.07;;;1.05;;
15952;SDS011;8075;47.766;8.846;2023-05-10T10:17:15;2.53;;;0.82;;
15952;SDS011;8075;47.766;8.846;2023-05-10T10:19:41;2.97;;;0.90;;
15952;SDS011;8075;47.766;8.846;2023-05-10T10:22:07;2.30;;;0.70;;
15952;SDS011;8075;47.766;8.846;2023-05-10T10:24:35;2.63;;;1.55;;
15952;SDS011;8075;47.766;8.846;2023-05-10T10:27:09;2.27;;;0.80;;
15952;SDS011;8075;47.766;8.846;2023-05-10T10:29:47;1.70;;;0.80;;
15952;SDS011;8075;47.766;8.846;2023-05-10T10:34:44;2.60;;;1.10;;
15952;SDS011;8075;47.766;8.846;2023-05-10T10:37:10;1.93;;;1.00;;
15952;SDS011;8075;47.766;8.846;2023-05-10T10:39:36;3.60;;;1.20;;
15952;SDS011;8075;47.766;8.846;2023-05-10T10:42:04;1.85;;;0.95;;
15952;SDS011;8075;47.766;8.846;2023-05-10T10:49:25;4.15;;;1.17;;
15952;SDS011;8075;47.766;8.846;2023-05-10T10:54:36;1.90;;;0.80;;
15952;SDS011;8075;47.766;8.846;2023-05-10T10:57:12;2.45;;;0.75;;
15952;SDS011;8075;47.766;8.846;2023-05-10T10:59:44;3.10;;;0.90;;
15952;SDS011;8075;47.766;8.846;2023-05-10T11:04:56;2.45;;;1.10;;
15952;SDS011;8075;47.766;8.846;2023-05-10T11:07:22;3.75;;;1.00;;
15952;SDS011;8075;47.766;8.846;2023-05-10T11:09:48;2.53;;;0.90;;
15952;SDS011;8075;47.766;8.846;2023-05-10T11:12:14;2.30;;;0.70;;
15952;SDS011;8075;47.766;8.846;2023-05-10T11:14:40;1.77;;;1.03;;
15952;SDS011;8075;47.766;8.846;2023-05-10T11:17:25;2.25;;;0.90;;
15952;SDS011;8075;47.766;8.846;2023-05-10T11:20:06;3.33;;;1.00;;
15952;SDS011;8075;47.766;8.846;2023-05-10T11:22:49;3.35;;;0.82;;
15952;SDS011;8075;47.766;8.846;2023-05-10T11:25:16;2.00;;;0.90;;
15952;SDS011;8075;47.766;8.846;2023-05-10T11:27:42;3.15;;;1.02;;
15952;SDS011;8075;47.766;8.846;2023-05-10T11:30:12;2.63;;;0.95;;
15952;SDS011;8075;47.766;8.846;2023-05-10T11:32:38;3.78;;;0.90;;
15952;SDS011;8075;47.766;8.846;2023-05-10T11:35:08;3.05;;;0.82;;
15952;SDS011;8075;47.766;8.846;2023-05-10T11:37:34;2.67;;;0.80;;
15952;SDS011;8075;47.766;8.846;2023-05-10T11:40:00;1.67;;;0.70;;
15952;SDS011;8075;47.766;8.846;2023-05-10T11:42:27;1.80;;;0.65;;
15952;SDS011;8075;47.766;8.846;2023-05-10T11:44:53;1.58;;;0.77;;
15952;SDS011;8075;47.766;8.846;2023-05-10T11:47:19;2.70;;;0.70;;
15952;SDS011;8075;47.766;8.846;2023-05-10T11:49:46;2.47;;;0.70;;
15952;SDS011;8075;47.766;8.846;2023-05-10T11:52:12;1.33;;;0.67;;
15952;SDS011;8075;47.766;8.846;2023-05-10T11:54:44;2.00;;;0.68;;
15952;SDS011;8075;47.766;8.846;2023-05-10T11:57:11;1.58;;;0.55;;
15952;SDS011;8075;47.766;8.846;2023-05-10T11:59:37;3.90;;;0.70;;
15952;SDS011;8075;47.766;8.846;2023-05-10T12:02:03;2.45;;;0.70;;
15952;SDS011;8075;47.766;8.846;2023-05-10T12:04:29;2.88;;;0.80;;
15952;SDS011;8075;47.766;8.846;2023-05-10T12:06:55;4.60;;;1.10;;
15952;SDS011;8075;47.766;8.846;2023-05-10T12:09:22;2.20;;;0.70;;
15952;SDS011;8075;47.766;8.846;2023-05-10T12:11:48;2.47;;;0.65;;
15952;SDS011;8075;47.766;8.846;2023-05-10T12:14:14;6.22;;;1.10;;
15952;SDS011;8075;47.766;8.846;2023-05-10T12:16:40;2.83;;;0.70;;
15952;SDS011;8075;47.766;8.846;2023-05-10T12:19:08;1.88;;;0.60;;
15952;SDS011;8075;47.766;8.846;2023-05-10T12:21:34;3.40;;;0.90;;
15952;SDS011;8075;47.766;8.846;2023-05-10T12:24:02;3.85;;;0.73;;
15952;SDS011;8075;47.766;8.846;2023-05-10T12:26:28;3.45;;;1.00;;
15952;SDS011;8075;47.766;8.846;2023-05-10T12:28:55;3.85;;;0.57;;
15952;SDS011;8075;47.766;8.846;2023-05-10T12:31:21;7.97;;;0.80;;
15952;SDS011;8075;47.766;8.846;2023-05-10T12:33:47;4.03;;;0.95;;
15952;SDS011;8075;47.766;8.846;2023-05-10T12:36:14;3.88;;;0.90;;
15952;SDS011;8075;47.766;8.846;2023-05-10T12:38:41;1.92;;;0.70;;
15952;SDS011;8075;47.766;8.846;2023-05-10T12:41:11;2.45;;;0.70;;
15952;SDS011;8075;47.766;8.846;2023-05-10T12:43:37;2.30;;;0.70;;
15952;SDS011;8075;47.766;8.846;2023-05-10T12:46:04;6.07;;;1.10;;
15952;SDS011;8075;47.766;8.846;2023-05-10T12:48:30;1.60;;;0.40;;
15952;SDS011;8075;47.766;8.846;2023-05-10T12:50:56;1.45;;;0.60;;
15952;SDS011;8075;47.766;8.846;2023-05-10T12:53:22;2.50;;;0.60;;
15952;SDS011;8075;47.766;8.846;2023-05-10T12:55:48;1.63;;;0.60;;
15952;SDS011;8075;47.766;8.846;2023-05-10T12:58:14;2.30;;;0.68;;
15952;SDS011;8075;47.766;8.846;2023-05-10T13:00:40;2.35;;;0.65;;
15952;SDS011;8075;47.766;8.846;2023-05-10T13:03:06;2.92;;;0.50;;
15952;SDS011;8075;47.766;8.846;2023-05-10T13:05:32;2.33;;;0.70;;
15952;SDS011;8075;47.766;8.846;2023-05-10T13:07:58;1.42;;;0.60;;
15952;SDS011;8075;47.766;8.846;2023-05-10T13:10:24;4.07;;;0.57;;
15952;SDS011;8075;47.766;8.846;2023-05-10T13:12:51;3.10;;;0.60;;
15952;SDS011;8075;47.766;8.846;2023-05-10T13:15:17;3.30;;;0.70;;
15952;SDS011;8075;47.766;8.846;2023-05-10T13:17:43;2.25;;;0.80;;
15952;SDS011;8075;47.766;8.846;2023-05-10T13:20:10;4.13;;;0.57;;
15952;SDS011;8075;47.766;8.846;2023-05-10T13:22:36;2.97;;;0.90;;
15952;SDS011;8075;47.766;8.846;2023-05-10T13:25:02;1.13;;;0.47;;
15952;SDS011;8075;47.766;8.846;2023-05-10T13:27:28;1.40;;;0.50;;
15952;SDS011;8075;47.766;8.846;2023-05-10T13:29:54;2.40;;;0.60;;
15952;SDS011;8075;47.766;8.846;2023-05-10T13:32:20;1.45;;;0.50;;
15952;SDS011;8075;47.766;8.846;2023-05-10T13:34:46;2.85;;;0.80;;
15952;SDS011;8075;47.766;8.846;2023-05-10T13:37:12;1.45;;;0.60;;
15952;SDS011;8075;47.766;8.846;2023-05-10T13:39:38;1.25;;;0.40;;
15952;SDS011;8075;47.766;8.846;2023-05-10T13:42:04;2.15;;;0.50;;
15952;SDS011;8075;47.766;8.846;2023-05-10T13:44:30;2.15;;;0.60;;
15952;SDS011;8075;47.766;8.846;2023-05-10T13:46:58;2.20;;;0.55;;
15952;SDS011;8075;47.766;8.846;2023-05-10T13:49:24;2.40;;;0.55;;
15952;SDS011;8075;47.766;8.846;2023-05-10T13:51:50;2.10;;;0.60;;
15952;SDS011;8075;47.766;8.846;2023-05-10T13:54:17;1.95;;;0.52;;
15952;SDS011;8075;47.766;8.846;2023-05-10T13:56:47;2.40;;;0.57;;
15952;SDS011;8075;47.766;8.846;2023-05-10T13:59:13;1.75;;;0.60;;
15952;SDS011;8075;47.766;8.846;2023-05-10T14:01:40;1.53;;;0.50;;
15952;SDS011;8075;47.766;8.846;2023-05-10T14:04:06;1.63;;;0.70;;
15952;SDS011;8075;47.766;8.846;2023-05-10T14:06:35;3.47;;;0.70;;
15952;SDS011;8075;47.766;8.846;2023-05-10T14:09:01;3.80;;;0.60;;
15952;SDS011;8075;47.766;8.846;2023-05-10T14:11:27;2.28;;;0.60;;
15952;SDS011;8075;47.766;8.846;2023-05-10T14:13:53;2.20;;;0.60;;
15952;SDS011;8075;47.766;8.846;2023-05-10T14:16:19;2.20;;;0.68;;
15952;SDS011;8075;47.766;8.846;2023-05-10T14:18:45;2.08;;;0.50;;
15952;SDS011;8075;47.766;8.846;2023-05-10T14:21:11;1.98;;;0.70;;
15952;SDS011;8075;47.766;8.846;2023-05-10T14:23:37;2.22;;;0.75;;
15952;SDS011;8075;47.766;8.846;2023-05-10T14:26:04;2.53;;;0.60;;
15952;SDS011;8075;47.766;8.846;2023-05-10T14:28:30;1.77;;;0.50;;
15952;SDS011;8075;47.766;8.846;2023-05-10T14:30:56;2.47;;;0.70;;
15952;SDS011;8075;47.766;8.846;2023-05-10T14:33:22;2.90;;;0.85;;
15952;SDS011;8075;47.766;8.846;2023-05-10T14:35:48;2.00;;;0.80;;
15952;SDS011;8075;47.766;8.846;2023-05-10T14:38:14;2.70;;;0.80;;
15952;SDS011;8075;47.766;8.846;2023-05-10T14:40:40;2.42;;;0.80;;
15952;SDS011;8075;47.766;8.846;2023-05-10T14:43:07;2.45;;;0.65;;
15952;SDS011;8075;47.766;8.846;2023-05-10T14:45:33;1.83;;;0.60;;
15952;SDS011;8075;47.766;8.846;2023-05-10T14:47:59;2.33;;;0.70;;
15952;SDS011;8075;47.766;8.846;2023-05-10T14:50:26;2.45;;;0.77;;
15952;SDS011;8075;47.766;8.846;2023-05-10T14:52:52;2.15;;;0.60;;
15952;SDS011;8075;47.766;8.846;2023-05-10T14:55:18;2.00;;;0.60;;
15952;SDS011;8075;47.766;8.846;2023-05-10T14:57:44;2.63;;;0.60;;
15952;SDS011;8075;47.766;8.846;2023-05-10T15:00:12;2.58;;;0.60;;
15952;SDS011;8075;47.766;8.846;2023-05-10T15:02:40;1.85;;;0.60;;
15952;SDS011;8075;47.766;8.846;2023-05-10T15:05:06;1.83;;;0.60;;
15952;SDS011;8075;47.766;8.846;2023-05-10T15:07:32;5.80;;;2.83;;
15952;SDS011;8075;47.766;8.846;2023-05-10T15:09:58;1.25;;;0.50;;
15952;SDS011;8075;47.766;8.846;2023-05-10T15:12:25;1.17;;;0.60;;
15952;SDS011;8075;47.766;8.846;2023-05-10T15:14:51;2.10;;;0.50;;
15952;SDS011;8075;47.766;8.846;2023-05-10T15:17:17;1.48;;;0.70;;
15952;SDS011;8075;47.766;8.846;2023-05-10T15:19:43;1.53;;;0.50;;
15952;SDS011;8075;47.766;8.846;2023-05-10T15:22:09;3.72;;;0.70;;
15952;SDS011;8075;47.766;8.846;2023-05-10T15:24:35;2.13;;;0.65;;
15952;SDS011;8075;47.766;8.846;2023-05-10T15:27:01;1.57;;;0.50;;